sensor_id;sensor_type;location;lat;lon;timestamp;temperature;humidity
13697;DHT22;6920;50.080;8.226;2023-07-31T00:03:38;18.20;99.90
13697;DHT22;6920;50.080;8.226;2023-07-31T00:06:07;18.00;99.90
13697;DHT22;6920;50.080;8.226;2023-07-31T00:08:34;17.90;99.90
13697;DHT22;6920;50.080;8.226;2023-07-31T00:11:02;17.90;99.90
13697;DHT22;6920;50.080;8.226;2023-07-31T00:13:29;17.80;99.90
13697;DHT22;6920;50.080;8.226;2023-07-31T00:15:57;17.80;99.90
13697;DHT22;6920;50.080;8.226;2023-07-31T00:18:24;17.80;99.90
13697;DHT22;6920;50.080;8.226;2023-07-31T00:20:51;17.70;99.90
13697;DHT22;6920;50.080;8.226;2023-07-31T00:23:20;17.70;99.90
13697;DHT22;6920;50.080;8.226;2023-07-31T00:25:47;17.70;99.90
13697;DHT22;6920;50.080;8.226;2023-07-31T00:28:15;17.70;99.90
13697;DHT22;6920;50.080;8.226;2023-07-31T00:30:42;17.70;99.90
13697;DHT22;6920;50.080;8.226;2023-07-31T00:33:09;17.60;99.90
13697;DHT22;6920;50.080;8.226;2023-07-31T00:35:36;17.70;99.90
13697;DHT22;6920;50.080;8.226;2023-07-31T00:38:04;17.60;99.90
13697;DHT22;6920;50.080;8.226;2023-07-31T00:40:36;17.60;99.90
13697;DHT22;6920;50.080;8.226;2023-07-31T00:43:04;17.60;99.90
13697;DHT22;6920;50.080;8.226;2023-07-31T00:45:31;17.60;99.90
13697;DHT22;6920;50.080;8.226;2023-07-31T00:47:59;17.60;99.90
13697;DHT22;6920;50.080;8.226;2023-07-31T00:50:27;17.50;99.90
13697;DHT22;6920;50.080;8.226;2023-07-31T00:52:55;17.30;99.90
13697;DHT22;6920;50.080;8.226;2023-07-31T00:55:22;17.20;99.90
13697;DHT22;6920;50.080;8.226;2023-07-31T00:57:52;17.30;99.90
13697;DHT22;6920;50.080;8.226;2023-07-31T01:00:21;17.20;99.90
13697;DHT22;6920;50.080;8.226;2023-07-31T01:02:49;17.20;99.90
13697;DHT22;6920;50.080;8.226;2023-07-31T01:05:18;17.20;99.90
13697;DHT22;6920;50.080;8.226;2023-07-31T01:07:52;17.30;99.90
13697;DHT22;6920;50.080;8.226;2023-07-31T01:10:26;17.40;99.90
13697;DHT22;6920;50.080;8.226;2023-07-31T01:12:56;17.40;99.90
13697;DHT22;6920;50.080;8.226;2023-07-31T01:15:24;17.40;99.90
13697;DHT22;6920;50.080;8.226;2023-07-31T01:17:51;17.50;99.90
13697;DHT22;6920;50.080;8.226;2023-07-31T01:20:21;17.60;99.90
13697;DHT22;6920;50.080;8.226;2023-07-31T01:25:56;17.70;99.90
13697;DHT22;6920;50.080;8.226;2023-07-31T01:28:32;17.70;99.90
13697;DHT22;6920;50.080;8.226;2023-07-31T01:31:02;17.70;99.90
13697;DHT22;6920;50.080;8.226;2023-07-31T01:33:31;17.70;99.90
13697;DHT22;6920;50.080;8.226;2023-07-31T01:35:58;17.80;99.90
13697;DHT22;6920;50.080;8.226;2023-07-31T01:38:26;17.80;99.90
13697;DHT22;6920;50.080;8.226;2023-07-31T01:40:54;17.90;99.90
13697;DHT22;6920;50.080;8.226;2023-07-31T01:43:21;17.90;99.90
13697;DHT22;6920;50.080;8.226;2023-07-31T01:45:50;18.00;99.90
13697;DHT22;6920;50.080;8.226;2023-07-31T01:50:44;18.10;99.90
13697;DHT22;6920;50.080;8.226;2023-07-31T01:53:11;18.00;99.90
13697;DHT22;6920;50.080;8.226;2023-07-31T01:55:39;18.10;99.90
13697;DHT22;6920;50.080;8.226;2023-07-31T01:58:07;18.00;99.90
13697;DHT22;6920;50.080;8.226;2023-07-31T02:00:35;18.00;99.90
13697;DHT22;6920;50.080;8.226;2023-07-31T02:05:29;18.10;99.90
13697;DHT22;6920;50.080;8.226;2023-07-31T02:10:24;18.20;99.90
13697;DHT22;6920;50.080;8.226;2023-07-31T02:12:51;18.10;99.90
13697;DHT22;6920;50.080;8.226;2023-07-31T02:15:20;18.10;99.90
13697;DHT22;6920;50.080;8.226;2023-07-31T02:17:47;18.20;99.90
13697;DHT22;6920;50.080;8.226;2023-07-31T02:20:14;18.20;99.90
13697;DHT22;6920;50.080;8.226;2023-07-31T02:25:08;18.20;99.90
13697;DHT22;6920;50.080;8.226;2023-07-31T02:27:35;18.20;99.90
13697;DHT22;6920;50.080;8.226;2023-07-31T02:30:03;18.20;99.90
13697;DHT22;6920;50.080;8.226;2023-07-31T02:32:31;18.20;99.90
13697;DHT22;6920;50.080;8.226;2023-07-31T02:34:58;18.30;99.90
13697;DHT22;6920;50.080;8.226;2023-07-31T02:37:27;18.20;99.90
13697;DHT22;6920;50.080;8.226;2023-07-31T02:39:54;18.20;99.90
13697;DHT22;6920;50.080;8.226;2023-07-31T02:42:21;18.20;99.90
13697;DHT22;6920;50.080;8.226;2023-07-31T02:44:48;18.20;99.90
13697;DHT22;6920;50.080;8.226;2023-07-31T02:47:21;18.20;99.90
13697;DHT22;6920;50.080;8.226;2023-07-31T02:49:49;18.20;99.90
13697;DHT22;6920;50.080;8.226;2023-07-31T02:52:16;18.20;99.90
13697;DHT22;6920;50.080;8.226;2023-07-31T02:54:43;18.10;99.90
13697;DHT22;6920;50.080;8.226;2023-07-31T02:57:11;18.10;99.90
13697;DHT22;6920;50.080;8.226;2023-07-31T02:59:38;18.10;99.90
13697;DHT22;6920;50.080;8.226;2023-07-31T03:04:33;18.10;99.90
13697;DHT22;6920;50.080;8.226;2023-07-31T03:07:01;18.10;99.90
13697;DHT22;6920;50.080;8.226;2023-07-31T03:09:28;18.10;99.90
13697;DHT22;6920;50.080;8.226;2023-07-31T03:11:56;18.10;99.90
13697;DHT22;6920;50.080;8.226;2023-07-31T03:14:23;18.10;99.90
13697;DHT22;6920;50.080;8.226;2023-07-31T03:16:52;18.10;99.90
13697;DHT22;6920;50.080;8.226;2023-07-31T03:19:19;18.10;99.90
13697;DHT22;6920;50.080;8.226;2023-07-31T03:24:15;18.10;99.90
13697;DHT22;6920;50.080;8.226;2023-07-31T03:26:42;18.10;99.90
13697;DHT22;6920;50.080;8.226;2023-07-31T03:29:09;18.10;99.90
13697;DHT22;6920;50.080;8.226;2023-07-31T03:31:37;18.10;99.90
13697;DHT22;6920;50.080;8.226;2023-07-31T03:34:04;18.20;99.90
13697;DHT22;6920;50.080;8.226;2023-07-31T03:36:31;18.10;99.90
13697;DHT22;6920;50.080;8.226;2023-07-31T03:41:27;18.10;99.90
13697;DHT22;6920;50.080;8.226;2023-07-31T03:43:54;18.10;99.90
13697;DHT22;6920;50.080;8.226;2023-07-31T03:46:22;18.20;99.90
13697;DHT22;6920;50.080;8.226;2023-07-31T03:48:50;18.20;99.90
13697;DHT22;6920;50.080;8.226;2023-07-31T03:53:45;18.30;99.90
13697;DHT22;6920;50.080;8.226;2023-07-31T03:56:12;18.20;99.90
13697;DHT22;6920;50.080;8.226;2023-07-31T03:58:41;18.30;99.90
13697;DHT22;6920;50.080;8.226;2023-07-31T04:01:08;18.20;99.90
13697;DHT22;6920;50.080;8.226;2023-07-31T04:06:02;18.20;99.90
13697;DHT22;6920;50.080;8.226;2023-07-31T04:10:56;18.30;99.90
13697;DHT22;6920;50.080;8.226;2023-07-31T04:13:23;18.20;99.90
13697;DHT22;6920;50.080;8.226;2023-07-31T04:15:54;18.20;99.90
13697;DHT22;6920;50.080;8.226;2023-07-31T04:18:22;18.30;99.90
13697;DHT22;6920;50.080;8.226;2023-07-31T04:20:49;18.30;99.90
13697;DHT22;6920;50.080;8.226;2023-07-31T04:23:16;18.30;99.90
13697;DHT22;6920;50.080;8.226;2023-07-31T04:25:43;18.20;99.90
13697;DHT22;6920;50.080;8.226;2023-07-31T04:28:10;18.20;99.90
13697;DHT22;6920;50.080;8.226;2023-07-31T04:33:06;18.30;99.90
13697;DHT22;6920;50.080;8.226;2023-07-31T04:40:28;18.30;99.90
13697;DHT22;6920;50.080;8.226;2023-07-31T04:42:54;18.30;99.90
13697;DHT22;6920;50.080;8.226;2023-07-31T04:47:49;18.30;99.90
13697;DHT22;6920;50.080;8.226;2023-07-31T04:50:18;18.30;99.90
13697;DHT22;6920;50.080;8.226;2023-07-31T04:52:45;18.30;99.90
13697;DHT22;6920;50.080;8.226;2023-07-31T04:55:12;18.20;99.90
13697;DHT22;6920;50.080;8.226;2023-07-31T04:57:40;18.30;99.90
13697;DHT22;6920;50.080;8.226;2023-07-31T05:00:08;18.30;99.90
13697;DHT22;6920;50.080;8.226;2023-07-31T05:02:35;18.30;99.90
13697;DHT22;6920;50.080;8.226;2023-07-31T05:05:03;18.30;99.90
13697;DHT22;6920;50.080;8.226;2023-07-31T05:07:31;18.30;99.90
13697;DHT22;6920;50.080;8.226;2023-07-31T05:12:26;18.40;99.90
13697;DHT22;6920;50.080;8.226;2023-07-31T05:17:21;18.40;99.90
13697;DHT22;6920;50.080;8.226;2023-07-31T05:19:48;18.40;99.90
13697;DHT22;6920;50.080;8.226;2023-07-31T05:22:16;18.40;99.90
13697;DHT22;6920;50.080;8.226;2023-07-31T05:24:44;18.30;99.90
13697;DHT22;6920;50.080;8.226;2023-07-31T05:27:12;18.40;99.90
13697;DHT22;6920;50.080;8.226;2023-07-31T05:29:41;18.40;99.90
13697;DHT22;6920;50.080;8.226;2023-07-31T05:32:08;18.30;99.90
13697;DHT22;6920;50.080;8.226;2023-07-31T05:37:03;18.30;99.90
13697;DHT22;6920;50.080;8.226;2023-07-31T05:39:31;18.30;99.90
13697;DHT22;6920;50.080;8.226;2023-07-31T05:42:00;18.30;99.90
13697;DHT22;6920;50.080;8.226;2023-07-31T05:44:27;18.30;99.90
13697;DHT22;6920;50.080;8.226;2023-07-31T05:49:22;18.50;99.90
13697;DHT22;6920;50.080;8.226;2023-07-31T05:51:49;18.50;99.90
13697;DHT22;6920;50.080;8.226;2023-07-31T05:54:17;18.70;99.90
13697;DHT22;6920;50.080;8.226;2023-07-31T05:56:44;18.60;99.90
13697;DHT22;6920;50.080;8.226;2023-07-31T05:59:13;18.70;99.90
13697;DHT22;6920;50.080;8.226;2023-07-31T06:01:40;18.70;99.90
13697;DHT22;6920;50.080;8.226;2023-07-31T06:04:08;18.80;99.90
13697;DHT22;6920;50.080;8.226;2023-07-31T06:06:35;18.70;99.90
13697;DHT22;6920;50.080;8.226;2023-07-31T06:09:02;18.70;99.90
13697;DHT22;6920;50.080;8.226;2023-07-31T06:11:30;18.80;99.90
13697;DHT22;6920;50.080;8.226;2023-07-31T06:16:27;19.10;99.90
13697;DHT22;6920;50.080;8.226;2023-07-31T06:18:54;19.10;99.90
13697;DHT22;6920;50.080;8.226;2023-07-31T06:21:21;19.10;99.90
13697;DHT22;6920;50.080;8.226;2023-07-31T06:23:49;19.00;99.90
13697;DHT22;6920;50.080;8.226;2023-07-31T06:26:16;19.00;99.90
13697;DHT22;6920;50.080;8.226;2023-07-31T06:28:43;18.90;99.90
13697;DHT22;6920;50.080;8.226;2023-07-31T06:31:11;19.10;99.90
13697;DHT22;6920;50.080;8.226;2023-07-31T06:33:39;19.00;99.90
13697;DHT22;6920;50.080;8.226;2023-07-31T06:36:07;19.00;99.90
13697;DHT22;6920;50.080;8.226;2023-07-31T06:38:34;19.20;99.90
13697;DHT22;6920;50.080;8.226;2023-07-31T06:41:03;19.30;99.90
13697;DHT22;6920;50.080;8.226;2023-07-31T06:43:31;19.30;99.90
13697;DHT22;6920;50.080;8.226;2023-07-31T06:46:04;19.40;99.90
13697;DHT22;6920;50.080;8.226;2023-07-31T06:48:33;19.40;99.90
13697;DHT22;6920;50.080;8.226;2023-07-31T06:51:02;19.40;99.90
13697;DHT22;6920;50.080;8.226;2023-07-31T06:53:29;19.50;99.90
13697;DHT22;6920;50.080;8.226;2023-07-31T06:55:56;19.50;99.90
13697;DHT22;6920;50.080;8.226;2023-07-31T06:58:24;19.40;99.90
13697;DHT22;6920;50.080;8.226;2023-07-31T07:00:51;19.40;99.90
13697;DHT22;6920;50.080;8.226;2023-07-31T07:03:19;19.50;99.90
13697;DHT22;6920;50.080;8.226;2023-07-31T07:05:46;20.00;99.90
13697;DHT22;6920;50.080;8.226;2023-07-31T07:08:15;20.30;99.90
13697;DHT22;6920;50.080;8.226;2023-07-31T07:10:44;20.50;99.90
13697;DHT22;6920;50.080;8.226;2023-07-31T07:13:11;20.70;99.90
13697;DHT22;6920;50.080;8.226;2023-07-31T07:15:39;20.80;99.90
13697;DHT22;6920;50.080;8.226;2023-07-31T07:18:07;20.90;99.90
13697;DHT22;6920;50.080;8.226;2023-07-31T07:20:36;20.90;99.90
13697;DHT22;6920;50.080;8.226;2023-07-31T07:23:03;20.60;99.90
13697;DHT22;6920;50.080;8.226;2023-07-31T07:25:32;20.40;99.90
13697;DHT22;6920;50.080;8.226;2023-07-31T07:27:59;20.30;99.90
13697;DHT22;6920;50.080;8.226;2023-07-31T07:30:26;20.20;99.90
13697;DHT22;6920;50.080;8.226;2023-07-31T07:32:54;20.20;99.90
13697;DHT22;6920;50.080;8.226;2023-07-31T07:35:21;20.40;99.90
13697;DHT22;6920;50.080;8.226;2023-07-31T07:37:48;20.60;99.90
13697;DHT22;6920;50.080;8.226;2023-07-31T07:40:17;20.70;99.90
13697;DHT22;6920;50.080;8.226;2023-07-31T07:42:45;20.60;99.90
13697;DHT22;6920;50.080;8.226;2023-07-31T07:45:13;20.60;99.90
13697;DHT22;6920;50.080;8.226;2023-07-31T07:47:41;20.60;99.90
13697;DHT22;6920;50.080;8.226;2023-07-31T07:50:09;20.30;99.90
13697;DHT22;6920;50.080;8.226;2023-07-31T07:52:36;20.30;99.90
13697;DHT22;6920;50.080;8.226;2023-07-31T07:55:07;20.20;99.90
13697;DHT22;6920;50.080;8.226;2023-07-31T07:57:34;20.20;99.90
13697;DHT22;6920;50.080;8.226;2023-07-31T08:00:04;20.20;99.90
13697;DHT22;6920;50.080;8.226;2023-07-31T08:02:31;20.20;99.90
13697;DHT22;6920;50.080;8.226;2023-07-31T08:04:58;20.20;99.90
13697;DHT22;6920;50.080;8.226;2023-07-31T08:07:28;20.40;99.90
13697;DHT22;6920;50.080;8.226;2023-07-31T08:09:56;20.90;99.90
13697;DHT22;6920;50.080;8.226;2023-07-31T08:12:23;20.90;99.90
13697;DHT22;6920;50.080;8.226;2023-07-31T08:14:50;20.60;99.90
13697;DHT22;6920;50.080;8.226;2023-07-31T08:17:19;20.60;99.90
13697;DHT22;6920;50.080;8.226;2023-07-31T08:19:46;20.50;99.90
13697;DHT22;6920;50.080;8.226;2023-07-31T08:22:14;20.40;99.90
13697;DHT22;6920;50.080;8.226;2023-07-31T08:24:41;20.30;99.90
13697;DHT22;6920;50.080;8.226;2023-07-31T08:27:09;20.30;99.90
13697;DHT22;6920;50.080;8.226;2023-07-31T08:32:06;20.60;99.90
13697;DHT22;6920;50.080;8.226;2023-07-31T08:34:35;20.70;99.90
13697;DHT22;6920;50.080;8.226;2023-07-31T08:37:02;20.70;99.90
13697;DHT22;6920;50.080;8.226;2023-07-31T08:39:30;20.70;99.90
13697;DHT22;6920;50.080;8.226;2023-07-31T08:42:00;20.60;99.90
13697;DHT22;6920;50.080;8.226;2023-07-31T08:44:29;20.60;99.90
13697;DHT22;6920;50.080;8.226;2023-07-31T08:46:57;20.60;99.90
13697;DHT22;6920;50.080;8.226;2023-07-31T08:49:26;20.70;99.90
13697;DHT22;6920;50.080;8.226;2023-07-31T08:51:56;20.90;99.90
13697;DHT22;6920;50.080;8.226;2023-07-31T08:54:23;21.10;99.90
13697;DHT22;6920;50.080;8.226;2023-07-31T08:56:55;21.10;99.90
13697;DHT22;6920;50.080;8.226;2023-07-31T08:59:23;21.10;99.90
13697;DHT22;6920;50.080;8.226;2023-07-31T09:01:53;21.00;99.90
13697;DHT22;6920;50.080;8.226;2023-07-31T09:04:23;21.10;99.90
13697;DHT22;6920;50.080;8.226;2023-07-31T09:06:54;21.10;99.90
13697;DHT22;6920;50.080;8.226;2023-07-31T09:09:25;21.10;99.90
13697;DHT22;6920;50.080;8.226;2023-07-31T09:11:53;21.20;99.90
13697;DHT22;6920;50.080;8.226;2023-07-31T09:14:20;21.30;99.90
13697;DHT22;6920;50.080;8.226;2023-07-31T09:16:52;21.40;99.90
13697;DHT22;6920;50.080;8.226;2023-07-31T09:19:26;21.30;99.90
13697;DHT22;6920;50.080;8.226;2023-07-31T09:21:54;21.20;99.90
13697;DHT22;6920;50.080;8.226;2023-07-31T09:24:30;21.10;99.90
13697;DHT22;6920;50.080;8.226;2023-07-31T09:26:58;21.20;99.90
13697;DHT22;6920;50.080;8.226;2023-07-31T09:29:27;21.20;99.90
13697;DHT22;6920;50.080;8.226;2023-07-31T09:31:55;21.10;99.90
13697;DHT22;6920;50.080;8.226;2023-07-31T09:34:29;21.20;99.90
13697;DHT22;6920;50.080;8.226;2023-07-31T09:40:25;21.20;99.90
13697;DHT22;6920;50.080;8.226;2023-07-31T09:42:53;21.40;99.90
13697;DHT22;6920;50.080;8.226;2023-07-31T09:45:20;21.50;99.90
13697;DHT22;6920;50.080;8.226;2023-07-31T09:47:47;21.60;99.90
13697;DHT22;6920;50.080;8.226;2023-07-31T09:50:15;21.70;99.90
13697;DHT22;6920;50.080;8.226;2023-07-31T09:52:42;21.80;99.90
13697;DHT22;6920;50.080;8.226;2023-07-31T09:55:09;21.90;99.90
13697;DHT22;6920;50.080;8.226;2023-07-31T09:57:40;22.00;99.90
13697;DHT22;6920;50.080;8.226;2023-07-31T10:00:08;22.00;99.90
13697;DHT22;6920;50.080;8.226;2023-07-31T10:02:36;21.90;99.90
13697;DHT22;6920;50.080;8.226;2023-07-31T10:05:05;21.80;99.90
13697;DHT22;6920;50.080;8.226;2023-07-31T10:07:37;21.80;99.90
13697;DHT22;6920;50.080;8.226;2023-07-31T10:10:07;21.80;99.90
13697;DHT22;6920;50.080;8.226;2023-07-31T10:12:34;21.80;99.90
13697;DHT22;6920;50.080;8.226;2023-07-31T10:15:05;21.90;99.90
13697;DHT22;6920;50.080;8.226;2023-07-31T10:17:32;21.90;99.90
13697;DHT22;6920;50.080;8.226;2023-07-31T10:20:02;22.20;99.90
13697;DHT22;6920;50.080;8.226;2023-07-31T10:22:31;22.20;99.90
13697;DHT22;6920;50.080;8.226;2023-07-31T10:24:59;22.40;99.90
13697;DHT22;6920;50.080;8.226;2023-07-31T10:29:55;22.30;99.90
13697;DHT22;6920;50.080;8.226;2023-07-31T10:32:25;22.40;99.90
13697;DHT22;6920;50.080;8.226;2023-07-31T10:34:54;22.70;99.90
13697;DHT22;6920;50.080;8.226;2023-07-31T10:37:25;23.30;99.90
13697;DHT22;6920;50.080;8.226;2023-07-31T10:39:57;23.80;99.90
13697;DHT22;6920;50.080;8.226;2023-07-31T10:42:32;23.70;99.90
13697;DHT22;6920;50.080;8.226;2023-07-31T10:45:02;23.50;99.90
13697;DHT22;6920;50.080;8.226;2023-07-31T10:47:30;23.30;99.90
13697;DHT22;6920;50.080;8.226;2023-07-31T10:50:17;23.10;99.90
13697;DHT22;6920;50.080;8.226;2023-07-31T10:52:47;23.20;99.90
13697;DHT22;6920;50.080;8.226;2023-07-31T10:55:22;23.50;99.90
13697;DHT22;6920;50.080;8.226;2023-07-31T10:57:49;23.40;99.90
13697;DHT22;6920;50.080;8.226;2023-07-31T11:00:21;23.40;99.90
13697;DHT22;6920;50.080;8.226;2023-07-31T11:03:05;23.30;99.90
13697;DHT22;6920;50.080;8.226;2023-07-31T11:05:49;23.60;99.90
13697;DHT22;6920;50.080;8.226;2023-07-31T11:08:22;23.40;99.90
13697;DHT22;6920;50.080;8.226;2023-07-31T11:10:51;23.50;99.90
13697;DHT22;6920;50.080;8.226;2023-07-31T11:13:33;23.40;99.90
13697;DHT22;6920;50.080;8.226;2023-07-31T11:16:01;23.30;99.90
13697;DHT22;6920;50.080;8.226;2023-07-31T11:18:29;23.50;99.90
13697;DHT22;6920;50.080;8.226;2023-07-31T11:20:56;23.40;99.90
13697;DHT22;6920;50.080;8.226;2023-07-31T11:23:23;23.50;99.90
13697;DHT22;6920;50.080;8.226;2023-07-31T11:25:50;23.80;99.90
13697;DHT22;6920;50.080;8.226;2023-07-31T11:28:18;24.20;99.90
13697;DHT22;6920;50.080;8.226;2023-07-31T11:30:46;24.60;99.90
13697;DHT22;6920;50.080;8.226;2023-07-31T11:33:13;24.20;99.90
13697;DHT22;6920;50.080;8.226;2023-07-31T11:35:46;24.40;99.90
13697;DHT22;6920;50.080;8.226;2023-07-31T11:38:21;24.60;99.90
13697;DHT22;6920;50.080;8.226;2023-07-31T11:40:49;24.40;99.90
13697;DHT22;6920;50.080;8.226;2023-07-31T11:43:18;24.40;99.90
13697;DHT22;6920;50.080;8.226;2023-07-31T11:45:47;24.60;99.90
13697;DHT22;6920;50.080;8.226;2023-07-31T11:48:22;24.60;99.90
13697;DHT22;6920;50.080;8.226;2023-07-31T11:50:53;24.60;99.90
13697;DHT22;6920;50.080;8.226;2023-07-31T11:53:24;24.50;99.90
13697;DHT22;6920;50.080;8.226;2023-07-31T11:55:52;24.60;99.90
13697;DHT22;6920;50.080;8.226;2023-07-31T11:58:20;24.80;99.90
13697;DHT22;6920;50.080;8.226;2023-07-31T12:00:48;24.80;99.90
13697;DHT22;6920;50.080;8.226;2023-07-31T12:05:43;24.50;99.90
13697;DHT22;6920;50.080;8.226;2023-07-31T12:08:12;24.30;99.90
13697;DHT22;6920;50.080;8.226;2023-07-31T12:10:39;24.20;99.90
13697;DHT22;6920;50.080;8.226;2023-07-31T12:13:09;24.20;99.90
13697;DHT22;6920;50.080;8.226;2023-07-31T12:15:40;24.10;99.90
13697;DHT22;6920;50.080;8.226;2023-07-31T12:18:09;23.90;99.90
13697;DHT22;6920;50.080;8.226;2023-07-31T12:20:41;23.90;99.90
13697;DHT22;6920;50.080;8.226;2023-07-31T12:23:15;23.90;99.90
13697;DHT22;6920;50.080;8.226;2023-07-31T12:25:43;23.80;99.90
13697;DHT22;6920;50.080;8.226;2023-07-31T12:28:11;24.00;99.90
13697;DHT22;6920;50.080;8.226;2023-07-31T12:30:40;24.40;99.90
13697;DHT22;6920;50.080;8.226;2023-07-31T12:33:14;24.80;99.90
13697;DHT22;6920;50.080;8.226;2023-07-31T12:35:44;25.10;99.90
13697;DHT22;6920;50.080;8.226;2023-07-31T12:38:12;25.30;99.90
13697;DHT22;6920;50.080;8.226;2023-07-31T12:40:41;26.00;99.90
13697;DHT22;6920;50.080;8.226;2023-07-31T12:45:37;26.10;99.90
13697;DHT22;6920;50.080;8.226;2023-07-31T12:48:05;26.00;99.90
13697;DHT22;6920;50.080;8.226;2023-07-31T12:50:32;26.00;99.90
13697;DHT22;6920;50.080;8.226;2023-07-31T12:53:02;25.70;99.90
13697;DHT22;6920;50.080;8.226;2023-07-31T12:55:30;25.50;99.90
13697;DHT22;6920;50.080;8.226;2023-07-31T12:58:00;25.30;99.90
13697;DHT22;6920;50.080;8.226;2023-07-31T13:00:28;25.50;99.90
13697;DHT22;6920;50.080;8.226;2023-07-31T13:02:55;25.30;99.90
13697;DHT22;6920;50.080;8.226;2023-07-31T13:05:22;25.20;99.90
13697;DHT22;6920;50.080;8.226;2023-07-31T13:07:49;25.50;99.90
13697;DHT22;6920;50.080;8.226;2023-07-31T13:10:17;25.80;99.90
13697;DHT22;6920;50.080;8.226;2023-07-31T13:12:44;25.20;99.90
13697;DHT22;6920;50.080;8.226;2023-07-31T13:15:12;25.10;99.90
13697;DHT22;6920;50.080;8.226;2023-07-31T13:17:40;25.20;99.90
13697;DHT22;6920;50.080;8.226;2023-07-31T13:20:08;25.00;99.90
13697;DHT22;6920;50.080;8.226;2023-07-31T13:22:35;24.60;99.90
13697;DHT22;6920;50.080;8.226;2023-07-31T13:25:02;24.30;99.90
13697;DHT22;6920;50.080;8.226;2023-07-31T13:27:30;24.30;99.90
13697;DHT22;6920;50.080;8.226;2023-07-31T13:29:58;24.40;99.90
13697;DHT22;6920;50.080;8.226;2023-07-31T13:32:26;24.40;99.90
13697;DHT22;6920;50.080;8.226;2023-07-31T13:34:53;24.20;99.90
13697;DHT22;6920;50.080;8.226;2023-07-31T13:37:21;24.10;99.90
13697;DHT22;6920;50.080;8.226;2023-07-31T13:39:48;23.80;99.90
13697;DHT22;6920;50.080;8.226;2023-07-31T13:42:15;23.60;99.90
13697;DHT22;6920;50.080;8.226;2023-07-31T13:44:43;23.50;99.90
13697;DHT22;6920;50.080;8.226;2023-07-31T13:47:10;23.50;99.90
13697;DHT22;6920;50.080;8.226;2023-07-31T13:49:39;23.40;99.90
13697;DHT22;6920;50.080;8.226;2023-07-31T13:52:07;23.10;99.90
13697;DHT22;6920;50.080;8.226;2023-07-31T13:54:34;23.10;99.90
13697;DHT22;6920;50.080;8.226;2023-07-31T13:57:02;23.10;99.90
13697;DHT22;6920;50.080;8.226;2023-07-31T13:59:29;23.20;99.90
13697;DHT22;6920;50.080;8.226;2023-07-31T14:01:56;23.10;99.90
13697;DHT22;6920;50.080;8.226;2023-07-31T14:04:23;23.30;99.90
13697;DHT22;6920;50.080;8.226;2023-07-31T14:06:52;23.30;99.90
13697;DHT22;6920;50.080;8.226;2023-07-31T14:09:19;23.20;99.90
13697;DHT22;6920;50.080;8.226;2023-07-31T14:11:46;23.40;99.90
13697;DHT22;6920;50.080;8.226;2023-07-31T14:14:13;23.60;99.90
13697;DHT22;6920;50.080;8.226;2023-07-31T14:16:41;23.60;99.90
13697;DHT22;6920;50.080;8.226;2023-07-31T14:19:09;23.50;99.90
13697;DHT22;6920;50.080;8.226;2023-07-31T14:21:36;23.50;99.90
13697;DHT22;6920;50.080;8.226;2023-07-31T14:24:05;23.40;99.90
13697;DHT22;6920;50.080;8.226;2023-07-31T14:26:32;23.40;99.90
13697;DHT22;6920;50.080;8.226;2023-07-31T14:28:59;23.60;99.90
13697;DHT22;6920;50.080;8.226;2023-07-31T14:31:27;23.50;99.90
13697;DHT22;6920;50.080;8.226;2023-07-31T14:33:54;23.40;99.90
13697;DHT22;6920;50.080;8.226;2023-07-31T14:36:21;23.40;99.90
13697;DHT22;6920;50.080;8.226;2023-07-31T14:38:48;23.50;99.90
13697;DHT22;6920;50.080;8.226;2023-07-31T14:41:17;23.60;99.90
13697;DHT22;6920;50.080;8.226;2023-07-31T14:43:44;23.50;99.90
13697;DHT22;6920;50.080;8.226;2023-07-31T14:46:11;23.30;99.90
13697;DHT22;6920;50.080;8.226;2023-07-31T14:48:38;23.20;99.90
13697;DHT22;6920;50.080;8.226;2023-07-31T14:51:06;23.10;99.90
13697;DHT22;6920;50.080;8.226;2023-07-31T14:53:33;22.90;99.90
13697;DHT22;6920;50.080;8.226;2023-07-31T14:56:00;22.80;99.90
13697;DHT22;6920;50.080;8.226;2023-07-31T14:58:30;22.90;99.90
13697;DHT22;6920;50.080;8.226;2023-07-31T15:00:57;22.90;99.90
13697;DHT22;6920;50.080;8.226;2023-07-31T15:03:24;22.90;99.90
13697;DHT22;6920;50.080;8.226;2023-07-31T15:05:52;22.90;99.90
13697;DHT22;6920;50.080;8.226;2023-07-31T15:10:46;22.80;99.90
13697;DHT22;6920;50.080;8.226;2023-07-31T15:15:42;22.90;99.90
13697;DHT22;6920;50.080;8.226;2023-07-31T15:18:09;22.70;99.90
13697;DHT22;6920;50.080;8.226;2023-07-31T15:23:04;22.30;99.90
13697;DHT22;6920;50.080;8.226;2023-07-31T15:25:32;22.00;99.90
13697;DHT22;6920;50.080;8.226;2023-07-31T15:28:00;19.30;99.90
13697;DHT22;6920;50.080;8.226;2023-07-31T15:30:27;22.00;99.90
13697;DHT22;6920;50.080;8.226;2023-07-31T15:32:57;21.90;99.90
13697;DHT22;6920;50.080;8.226;2023-07-31T15:57:34;21.30;99.90
13697;DHT22;6920;50.080;8.226;2023-07-31T16:00:03;21.40;99.90
13697;DHT22;6920;50.080;8.226;2023-07-31T16:09:55;21.50;99.90
13697;DHT22;6920;50.080;8.226;2023-07-31T16:24:41;21.40;99.90
13697;DHT22;6920;50.080;8.226;2023-07-31T16:29:36;21.40;99.90
13697;DHT22;6920;50.080;8.226;2023-07-31T16:34:31;21.40;99.90
13697;DHT22;6920;50.080;8.226;2023-07-31T16:39:28;21.30;99.90
13697;DHT22;6920;50.080;8.226;2023-07-31T16:42:02;21.30;99.90
13697;DHT22;6920;50.080;8.226;2023-07-31T16:44:29;21.20;99.90
13697;DHT22;6920;50.080;8.226;2023-07-31T17:19:03;19.80;99.90
13697;DHT22;6920;50.080;8.226;2023-07-31T17:21:30;19.80;99.90
13697;DHT22;6920;50.080;8.226;2023-07-31T17:23:57;19.80;99.90
13697;DHT22;6920;50.080;8.226;2023-07-31T17:28:53;19.80;99.90
13697;DHT22;6920;50.080;8.226;2023-07-31T17:31:20;19.80;99.90
13697;DHT22;6920;50.080;8.226;2023-07-31T17:36:16;19.80;99.90
13697;DHT22;6920;50.080;8.226;2023-07-31T17:41:11;19.60;99.90
13697;DHT22;6920;50.080;8.226;2023-07-31T17:43:38;19.60;99.90
13697;DHT22;6920;50.080;8.226;2023-07-31T17:46:05;19.60;99.90
13697;DHT22;6920;50.080;8.226;2023-07-31T18:20:38;19.70;99.90
13697;DHT22;6920;50.080;8.226;2023-07-31T18:25:34;19.60;99.90
13697;DHT22;6920;50.080;8.226;2023-07-31T18:28:01;19.60;99.90
13697;DHT22;6920;50.080;8.226;2023-07-31T18:42:47;19.60;99.90
13697;DHT22;6920;50.080;8.226;2023-07-31T18:50:09;19.70;99.90
13697;DHT22;6920;50.080;8.226;2023-07-31T18:55:04;19.70;99.90
13697;DHT22;6920;50.080;8.226;2023-07-31T19:04:57;19.70;99.90
13697;DHT22;6920;50.080;8.226;2023-07-31T19:24:37;19.70;99.90
13697;DHT22;6920;50.080;8.226;2023-07-31T19:31:58;19.70;99.90
13697;DHT22;6920;50.080;8.226;2023-07-31T19:36:54;19.70;99.90
13697;DHT22;6920;50.080;8.226;2023-07-31T19:41:49;19.70;99.90
13697;DHT22;6920;50.080;8.226;2023-07-31T19:46:44;19.60;99.90
13697;DHT22;6920;50.080;8.226;2023-07-31T19:49:12;19.50;99.90
13697;DHT22;6920;50.080;8.226;2023-07-31T20:18:51;18.90;99.90
13697;DHT22;6920;50.080;8.226;2023-07-31T20:31:09;18.80;99.90
13697;DHT22;6920;50.080;8.226;2023-07-31T20:43:28;17.60;99.90
13697;DHT22;6920;50.080;8.226;2023-07-31T20:45:55;17.50;99.90
13697;DHT22;6920;50.080;8.226;2023-07-31T20:48:22;17.30;99.90
13697;DHT22;6920;50.080;8.226;2023-07-31T20:50:48;17.20;99.90